createdAt,value
2022-09-26T00:00:19.161Z,993.32
2022-09-26T00:01:19.192Z,993.33
2022-09-26T00:02:19.204Z,993.31
2022-09-26T00:03:19.130Z,993.37
2022-09-26T00:04:22.698Z,993.36
2022-09-26T00:05:19.103Z,993.43
2022-09-26T00:06:19.098Z,993.37
2022-09-26T00:07:19.089Z,993.34
2022-09-26T00:08:19.068Z,993.38
2022-09-26T00:09:19.072Z,993.36
2022-09-26T00:10:19.061Z,993.35
2022-09-26T00:11:19.039Z,993.39
2022-09-26T00:12:19.022Z,993.37
2022-09-26T00:13:19.011Z,993.37
2022-09-26T00:14:19.000Z,993.38
2022-09-26T00:15:19.020Z,993.37
2022-09-26T00:16:19.064Z,993.37
2022-09-26T00:17:18.971Z,993.32
2022-09-26T00:18:18.950Z,993.31
2022-09-26T00:19:18.969Z,993.32
2022-09-26T00:20:18.930Z,993.25
2022-09-26T00:21:18.941Z,993.28
2022-09-26T00:22:18.909Z,993.23
2022-09-26T00:23:18.901Z,993.28
2022-09-26T00:24:18.880Z,993.28
2022-09-26T00:25:18.881Z,993.21
2022-09-26T00:26:18.864Z,993.19
2022-09-26T00:27:18.873Z,993.25
2022-09-26T00:28:18.840Z,993.19
2022-09-26T00:29:18.831Z,993.14
2022-09-26T00:30:18.849Z,993.16
2022-09-26T00:31:18.989Z,993.18
2022-09-26T00:32:18.791Z,993.16
2022-09-26T00:33:18.812Z,993.15
2022-09-26T00:34:18.784Z,993.19
2022-09-26T00:35:18.759Z,993.18
2022-09-26T00:36:18.748Z,993.19
2022-09-26T00:37:18.742Z,993.21
2022-09-26T00:38:18.750Z,993.19
2022-09-26T00:39:18.723Z,993.23
2022-09-26T00:40:18.745Z,993.27
2022-09-26T00:41:18.690Z,993.21
2022-09-26T00:42:18.679Z,993.22
2022-09-26T00:43:18.670Z,993.19
2022-09-26T00:44:18.671Z,993.20
2022-09-26T00:45:18.649Z,993.19
2022-09-26T00:46:18.704Z,993.17
2022-09-26T00:47:18.629Z,993.14
2022-09-26T00:48:18.609Z,993.17
2022-09-26T00:49:18.629Z,993.08
2022-09-26T00:50:18.590Z,993.10
2022-09-26T00:51:18.581Z,993.09
2022-09-26T00:52:18.569Z,993.09
2022-09-26T00:53:18.559Z,993.11
2022-09-26T00:54:18.550Z,993.07
2022-09-26T00:55:18.561Z,993.00
2022-09-26T00:56:18.520Z,993.03
2022-09-26T00:57:18.499Z,993.02
2022-09-26T00:58:18.499Z,993.04
2022-09-26T00:59:18.488Z,993.03
2022-09-26T01:00:18.553Z,993.02
2022-09-26T01:01:18.575Z,992.98
2022-09-26T01:02:18.556Z,992.98
2022-09-26T01:03:18.440Z,993.00
2022-09-26T01:04:18.428Z,992.92
2022-09-26T01:05:18.409Z,992.88
2022-09-26T01:06:18.403Z,992.93
2022-09-26T01:07:18.419Z,992.92
2022-09-26T01:08:18.379Z,992.85
2022-09-26T01:09:18.360Z,992.88
2022-09-26T01:10:18.349Z,992.88
2022-09-26T01:11:18.340Z,992.86
2022-09-26T01:12:18.328Z,992.84
2022-09-26T01:13:18.340Z,992.84
2022-09-26T01:14:18.309Z,992.84
2022-09-26T01:15:18.289Z,992.83
2022-09-26T01:16:18.377Z,992.78
2022-09-26T01:17:18.269Z,992.85
2022-09-26T01:18:18.268Z,992.81
2022-09-26T01:19:18.279Z,992.76
2022-09-26T01:20:18.238Z,992.75
2022-09-26T01:21:18.219Z,992.77
2022-09-26T01:22:18.217Z,992.75
2022-09-26T01:23:18.203Z,992.76
2022-09-26T01:24:18.198Z,992.75
2022-09-26T01:25:18.210Z,992.72
2022-09-26T01:26:18.168Z,992.71
2022-09-26T01:27:18.149Z,992.63
2022-09-26T01:28:18.147Z,992.63
2022-09-26T01:29:18.128Z,992.67
2022-09-26T01:30:18.119Z,992.65
2022-09-26T01:31:18.175Z,992.70
2022-09-26T01:32:18.104Z,992.69
2022-09-26T01:33:18.079Z,992.68
2022-09-26T01:34:18.068Z,992.76
2022-09-26T01:35:18.060Z,992.74
2022-09-26T01:36:18.068Z,992.71
2022-09-26T01:37:18.038Z,992.74
2022-09-26T01:38:18.027Z,992.72
2022-09-26T01:39:18.017Z,992.72
2022-09-26T01:40:18.045Z,992.71
2022-09-26T01:41:17.997Z,992.74
2022-09-26T01:42:18.005Z,992.63
2022-09-26T01:43:17.974Z,992.70
2022-09-26T01:44:17.959Z,992.73
2022-09-26T01:45:17.947Z,992.75
2022-09-26T01:46:17.989Z,992.75
2022-09-26T01:47:17.917Z,992.69
2022-09-26T01:48:17.968Z,992.75
2022-09-26T01:49:17.899Z,992.68
2022-09-26T01:50:17.888Z,992.71
2022-09-26T01:51:17.867Z,992.67
2022-09-26T01:52:17.857Z,992.63
2022-09-26T01:53:17.847Z,992.52
2022-09-26T01:54:17.857Z,992.57
2022-09-26T01:55:17.827Z,992.60
2022-09-26T01:56:17.818Z,992.59
2022-09-26T01:57:17.798Z,992.57
2022-09-26T01:58:17.801Z,992.54
2022-09-26T01:59:17.777Z,992.52
2022-09-26T02:00:17.825Z,992.56
2022-09-26T02:01:17.823Z,992.54
2022-09-26T02:02:17.799Z,992.58
2022-09-26T02:03:17.737Z,992.58
2022-09-26T02:04:17.727Z,992.48
2022-09-26T02:05:17.715Z,992.54
2022-09-26T02:06:17.716Z,992.46
2022-09-26T02:07:17.685Z,992.51
2022-09-26T02:08:17.678Z,992.47
2022-09-26T02:09:17.657Z,992.44
2022-09-26T02:10:17.658Z,992.45
2022-09-26T02:11:17.666Z,992.47
2022-09-26T02:12:17.640Z,992.45
2022-09-26T02:13:17.617Z,992.39
2022-09-26T02:14:17.606Z,992.33
2022-09-26T02:15:17.595Z,992.23
2022-09-26T02:16:17.638Z,992.32
2022-09-26T02:17:17.586Z,992.26
2022-09-26T02:18:17.566Z,992.21
2022-09-26T02:19:17.546Z,992.22
2022-09-26T02:20:17.536Z,992.14
2022-09-26T02:21:17.525Z,992.16
2022-09-26T02:22:17.537Z,992.15
2022-09-26T02:23:17.565Z,992.14
2022-09-26T02:24:17.495Z,992.13
2022-09-26T02:25:17.476Z,992.17
2022-09-26T02:26:17.476Z,992.17
2022-09-26T02:27:17.456Z,992.13
2022-09-26T02:28:17.476Z,992.17
2022-09-26T02:29:17.437Z,992.11
2022-09-26T02:30:17.427Z,992.15
2022-09-26T02:31:17.406Z,992.10
2022-09-26T02:32:17.513Z,992.11
2022-09-26T02:33:17.386Z,992.07
2022-09-26T02:34:17.414Z,992.06
2022-09-26T02:35:17.369Z,992.11
2022-09-26T02:36:17.356Z,992.09
2022-09-26T02:37:17.343Z,992.05
2022-09-26T02:38:17.337Z,992.10
2022-09-26T02:39:17.316Z,992.09
2022-09-26T02:40:17.393Z,992.03
2022-09-26T02:41:17.296Z,992.09
2022-09-26T02:42:17.286Z,992.02
2022-09-26T02:43:17.275Z,992.06
2022-09-26T02:44:17.267Z,991.96
2022-09-26T02:45:17.280Z,991.97
2022-09-26T02:46:17.284Z,991.99
2022-09-26T02:47:17.229Z,991.96
2022-09-26T02:48:17.215Z,991.94
2022-09-26T02:49:17.195Z,991.96
2022-09-26T02:50:17.195Z,991.93
2022-09-26T02:51:17.227Z,991.89
2022-09-26T02:52:17.186Z,991.89
2022-09-26T02:53:17.165Z,991.88
2022-09-26T02:54:17.147Z,991.83
2022-09-26T02:55:17.136Z,991.85
2022-09-26T02:56:17.126Z,991.76
2022-09-26T02:57:17.143Z,991.82
2022-09-26T02:58:17.135Z,991.78
2022-09-26T02:59:17.097Z,991.70
2022-09-26T03:00:17.083Z,991.71
2022-09-26T03:01:17.086Z,991.69
2022-09-26T03:02:17.055Z,991.77
2022-09-26T03:03:17.074Z,991.73
2022-09-26T03:04:17.083Z,991.73
2022-09-26T03:05:17.065Z,991.67
2022-09-26T03:06:17.013Z,991.70
2022-09-26T03:07:24.047Z,991.67
2022-09-26T03:08:16.988Z,991.63
2022-09-26T03:09:17.007Z,991.64
2022-09-26T03:10:16.972Z,991.62
2022-09-26T03:11:16.959Z,991.63
2022-09-26T03:12:16.959Z,991.63
2022-09-26T03:13:16.931Z,991.67
2022-09-26T03:14:16.918Z,991.65
2022-09-26T03:15:16.927Z,991.62
2022-09-26T03:16:16.956Z,991.68
2022-09-26T03:17:16.888Z,991.67
2022-09-26T03:18:16.875Z,991.66
2022-09-26T03:19:16.858Z,991.64
2022-09-26T03:20:16.847Z,991.60
2022-09-26T03:21:16.858Z,991.59
2022-09-26T03:22:16.827Z,991.61
2022-09-26T03:23:16.817Z,991.54
2022-09-26T03:24:16.808Z,991.53
2022-09-26T03:25:16.790Z,991.57
2022-09-26T03:26:16.777Z,991.52
2022-09-26T03:27:16.790Z,991.53
2022-09-26T03:28:16.758Z,991.43
2022-09-26T03:29:16.746Z,991.44
2022-09-26T03:30:16.743Z,991.46
2022-09-26T03:31:16.803Z,991.44
2022-09-26T03:32:16.783Z,991.45
2022-09-26T03:33:16.725Z,991.41
2022-09-26T03:34:16.697Z,991.42
2022-09-26T03:35:16.678Z,991.38
2022-09-26T03:36:16.678Z,991.41
2022-09-26T03:37:16.656Z,991.38
2022-09-26T03:38:16.649Z,991.35
2022-09-26T03:39:16.656Z,991.31
2022-09-26T03:40:16.671Z,991.27
2022-09-26T03:41:16.607Z,991.27
2022-09-26T03:42:16.608Z,991.28
2022-09-26T03:43:16.586Z,991.27
2022-09-26T03:44:16.577Z,991.23
2022-09-26T03:45:16.584Z,991.22
2022-09-26T03:46:16.602Z,991.17
2022-09-26T03:47:16.538Z,991.19
2022-09-26T03:48:16.534Z,991.19
2022-09-26T03:49:16.524Z,991.17
2022-09-26T03:50:16.539Z,991.17
2022-09-26T03:51:16.536Z,991.17
2022-09-26T03:52:16.507Z,991.16
2022-09-26T03:53:16.475Z,991.10
2022-09-26T03:54:16.466Z,991.12
2022-09-26T03:55:16.460Z,991.07
2022-09-26T03:56:16.441Z,991.03
2022-09-26T03:57:16.481Z,990.99
2022-09-26T03:58:16.419Z,990.94
2022-09-26T03:59:16.406Z,990.98
2022-09-26T04:00:16.398Z,990.96
2022-09-26T04:01:16.452Z,990.91
2022-09-26T04:02:16.423Z,990.88
2022-09-26T04:03:16.386Z,990.95
2022-09-26T04:04:16.356Z,990.81
2022-09-26T04:05:16.337Z,990.83
2022-09-26T04:06:16.326Z,990.81
2022-09-26T04:07:16.320Z,990.81
2022-09-26T04:08:16.305Z,990.75
2022-09-26T04:09:17.308Z,990.73
2022-09-26T04:10:16.285Z,990.72
2022-09-26T04:11:16.275Z,990.70
2022-09-26T04:12:16.265Z,990.70
2022-09-26T04:13:39.795Z,990.66
2022-09-26T04:14:17.265Z,990.64
2022-09-26T04:15:16.224Z,990.67
2022-09-26T04:16:16.241Z,990.65
2022-09-26T04:17:16.197Z,990.63
2022-09-26T04:18:16.193Z,990.63
2022-09-26T04:19:16.257Z,990.63
2022-09-26T04:20:16.185Z,990.63
2022-09-26T04:21:16.155Z,990.56
2022-09-26T04:22:16.146Z,990.59
2022-09-26T04:23:16.133Z,990.54
2022-09-26T04:24:16.126Z,990.55
2022-09-26T04:25:16.105Z,990.55
2022-09-26T04:26:20.316Z,990.59
2022-09-26T04:27:17.082Z,990.54
2022-09-26T04:28:16.075Z,990.54
2022-09-26T04:29:16.249Z,990.53
2022-09-26T04:30:16.060Z,990.50
2022-09-26T04:31:16.126Z,990.44
2022-09-26T04:32:16.056Z,990.44
2022-09-26T04:33:16.015Z,990.41
2022-09-26T04:34:16.010Z,990.46
2022-09-26T04:35:15.994Z,990.44
2022-09-26T04:36:15.984Z,990.38
2022-09-26T04:37:15.976Z,990.37
2022-09-26T04:38:15.975Z,990.41
2022-09-26T04:39:15.961Z,990.36
2022-09-26T04:40:15.964Z,990.36
2022-09-26T04:41:15.994Z,990.39
2022-09-26T04:42:15.916Z,990.34
2022-09-26T04:43:15.925Z,990.46
2022-09-26T04:44:15.895Z,990.44
2022-09-26T04:45:15.876Z,990.42
2022-09-26T04:46:20.027Z,990.33
2022-09-26T04:47:16.854Z,990.34
2022-09-26T04:48:15.844Z,990.31
2022-09-26T04:49:15.973Z,990.32
2022-09-26T04:50:15.825Z,990.33
2022-09-26T04:51:15.814Z,990.26
2022-09-26T04:52:15.804Z,990.29
2022-09-26T04:53:15.786Z,990.23
2022-09-26T04:54:15.782Z,990.24
2022-09-26T04:55:15.787Z,990.26
2022-09-26T04:56:15.755Z,990.24
2022-09-26T04:57:19.533Z,990.22
2022-09-26T04:58:15.736Z,990.25
2022-09-26T04:59:15.918Z,990.26
2022-09-26T05:00:15.714Z,990.25
2022-09-26T05:01:15.843Z,990.19
2022-09-26T05:02:15.792Z,990.22
2022-09-26T05:03:15.674Z,990.15
2022-09-26T05:04:15.730Z,990.18
2022-09-26T05:05:15.679Z,990.11
2022-09-26T05:06:15.646Z,990.12
2022-09-26T05:07:15.685Z,990.13
2022-09-26T05:08:15.618Z,990.07
2022-09-26T05:09:15.660Z,989.98
2022-09-26T05:10:15.595Z,990.00
2022-09-26T05:11:15.593Z,989.98
2022-09-26T05:12:15.574Z,989.95
2022-09-26T05:13:15.584Z,989.93
2022-09-26T05:14:15.552Z,989.99
2022-09-26T05:15:15.543Z,989.94
2022-09-26T05:16:15.560Z,989.99
2022-09-26T05:17:15.539Z,989.94
2022-09-26T05:18:15.506Z,989.92
2022-09-26T05:19:15.613Z,989.95
2022-09-26T05:20:15.482Z,989.92
2022-09-26T05:21:15.474Z,989.94
2022-09-26T05:22:15.463Z,989.92
2022-09-26T05:23:15.454Z,989.94
2022-09-26T05:24:15.442Z,989.96
2022-09-26T05:25:15.445Z,989.92
2022-09-26T05:26:15.416Z,989.89
2022-09-26T05:27:15.411Z,989.87
2022-09-26T05:28:15.392Z,989.87
2022-09-26T05:29:15.398Z,989.88
2022-09-26T05:30:15.404Z,989.90
2022-09-26T05:31:15.408Z,989.81
2022-09-26T05:32:15.345Z,989.90
2022-09-26T05:33:15.333Z,989.84
2022-09-26T05:34:19.515Z,989.85
2022-09-26T05:35:16.397Z,989.76
2022-09-26T05:36:15.314Z,989.81
2022-09-26T05:37:15.301Z,989.78
2022-09-26T05:38:15.284Z,989.75
2022-09-26T05:39:15.360Z,989.82
2022-09-26T05:40:15.299Z,989.74
2022-09-26T05:41:15.274Z,989.76
2022-09-26T05:42:15.241Z,989.78
2022-09-26T05:43:15.223Z,989.74
2022-09-26T05:44:15.213Z,989.72
2022-09-26T05:45:15.222Z,989.70
2022-09-26T05:46:15.245Z,989.67
2022-09-26T05:47:15.249Z,989.61
2022-09-26T05:48:15.164Z,989.64
2022-09-26T05:49:15.273Z,989.65
2022-09-26T05:50:15.158Z,989.68
2022-09-26T05:51:15.144Z,989.67
2022-09-26T05:52:15.146Z,989.69
2022-09-26T05:53:15.143Z,989.71
2022-09-26T05:54:15.115Z,989.72
2022-09-26T05:55:15.091Z,989.68
2022-09-26T05:56:18.803Z,989.70
2022-09-26T05:57:15.069Z,989.69
2022-09-26T05:58:15.073Z,989.70
2022-09-26T05:59:15.144Z,989.69
2022-09-26T06:00:15.030Z,989.70
2022-09-26T06:01:15.079Z,989.69
2022-09-26T06:02:18.582Z,989.66
2022-09-26T06:03:16.053Z,989.62
2022-09-26T06:04:14.983Z,989.60
2022-09-26T06:05:14.974Z,989.61
2022-09-26T06:06:14.961Z,989.57
2022-09-26T06:07:14.952Z,989.58
2022-09-26T06:08:14.941Z,989.56
2022-09-26T06:09:15.052Z,989.60
2022-09-26T06:10:14.914Z,989.59
2022-09-26T06:11:14.911Z,989.61
2022-09-26T06:12:14.893Z,989.49
2022-09-26T06:13:14.884Z,989.54
2022-09-26T06:14:14.872Z,989.53
2022-09-26T06:15:14.904Z,989.51
2022-09-26T06:16:14.899Z,989.49
2022-09-26T06:17:14.846Z,989.44
2022-09-26T06:18:14.823Z,989.45
2022-09-26T06:19:17.419Z,989.40
2022-09-26T06:20:14.801Z,989.43
2022-09-26T06:21:14.822Z,989.45
2022-09-26T06:22:14.780Z,989.42
2022-09-26T06:23:14.772Z,989.49
2022-09-26T06:24:14.753Z,989.42
2022-09-26T06:25:14.746Z,989.43
2022-09-26T06:26:14.734Z,989.46
2022-09-26T06:27:14.753Z,989.44
2022-09-26T06:28:14.711Z,989.38
2022-09-26T06:29:14.801Z,989.47
2022-09-26T06:30:14.682Z,989.39
2022-09-26T06:31:14.764Z,989.45
2022-09-26T06:32:14.663Z,989.42
2022-09-26T06:33:14.714Z,989.33
2022-09-26T06:34:14.642Z,989.37
2022-09-26T06:35:14.634Z,989.38
2022-09-26T06:36:14.626Z,989.30
2022-09-26T06:37:14.614Z,989.34
2022-09-26T06:38:14.594Z,989.28
2022-09-26T06:39:14.762Z,989.31
2022-09-26T06:40:14.615Z,989.29
2022-09-26T06:41:14.566Z,989.32
2022-09-26T06:42:14.553Z,989.35
2022-09-26T06:43:14.542Z,989.29
2022-09-26T06:44:14.543Z,989.24
2022-09-26T06:45:14.523Z,989.28
2022-09-26T06:46:14.588Z,989.25
2022-09-26T06:47:14.574Z,989.31
2022-09-26T06:48:14.482Z,989.27
2022-09-26T06:49:14.621Z,989.31
2022-09-26T06:50:14.475Z,989.23
2022-09-26T06:51:14.445Z,989.34
2022-09-26T06:52:14.434Z,989.33
2022-09-26T06:53:14.430Z,989.33
2022-09-26T06:54:14.413Z,989.29
2022-09-26T06:55:14.424Z,989.30
2022-09-26T06:56:14.393Z,989.18
2022-09-26T06:57:15.243Z,989.19
2022-09-26T06:58:14.366Z,989.20
2022-09-26T06:59:14.386Z,989.18
2022-09-26T07:00:14.348Z,989.18
2022-09-26T07:01:14.542Z,989.12
2022-09-26T07:02:14.424Z,989.12
2022-09-26T07:03:14.314Z,989.13
2022-09-26T07:04:14.294Z,989.17
2022-09-26T07:05:14.294Z,989.13
2022-09-26T07:06:14.325Z,989.16
2022-09-26T07:07:14.264Z,989.09
2022-09-26T07:08:14.253Z,989.14
2022-09-26T07:09:14.436Z,989.04
2022-09-26T07:10:14.233Z,989.01
2022-09-26T07:11:32.899Z,989.09
2022-09-26T07:12:15.711Z,989.08
2022-09-26T07:13:14.194Z,989.13
2022-09-26T07:14:14.184Z,989.08
2022-09-26T07:15:14.179Z,989.11
2022-09-26T07:16:14.222Z,988.95
2022-09-26T07:17:14.176Z,989.10
2022-09-26T07:18:14.136Z,989.08
2022-09-26T07:19:14.262Z,989.11
2022-09-26T07:20:14.114Z,989.06
2022-09-26T07:21:14.106Z,989.08
2022-09-26T07:22:14.095Z,989.02
2022-09-26T07:23:14.107Z,989.00
2022-09-26T07:24:14.119Z,989.03
2022-09-26T07:25:14.080Z,988.98
2022-09-26T07:26:14.046Z,988.95
2022-09-26T07:27:14.037Z,988.92
2022-09-26T07:28:14.018Z,988.96
2022-09-26T07:29:14.249Z,988.92
2022-09-26T07:30:13.998Z,988.95
2022-09-26T07:31:14.020Z,988.93
2022-09-26T07:32:13.975Z,988.98
2022-09-26T07:33:13.969Z,988.99
2022-09-26T07:34:17.978Z,988.97
2022-09-26T07:35:13.987Z,988.95
2022-09-26T07:36:13.928Z,988.93
2022-09-26T07:37:13.918Z,988.88
2022-09-26T07:38:13.908Z,988.91
2022-09-26T07:39:13.992Z,988.85
2022-09-26T07:40:13.977Z,988.89
2022-09-26T07:41:13.897Z,988.78
2022-09-26T07:42:13.872Z,988.81
2022-09-26T07:43:19.605Z,988.79
2022-09-26T07:45:27.988Z,988.80
2022-09-26T07:46:14.883Z,988.73
2022-09-26T07:47:13.802Z,988.64
2022-09-26T07:48:13.790Z,988.67
2022-09-26T07:49:13.780Z,988.61
2022-09-26T07:50:13.767Z,988.68
2022-09-26T07:51:13.760Z,988.64
2022-09-26T07:52:13.768Z,988.63
2022-09-26T07:53:13.740Z,988.62
2022-09-26T07:54:13.861Z,988.67
2022-09-26T07:55:13.711Z,988.60
2022-09-26T07:56:13.691Z,988.73
2022-09-26T07:57:13.691Z,988.65
2022-09-26T07:58:13.699Z,988.70
2022-09-26T07:59:13.670Z,988.60
2022-09-26T08:00:13.651Z,988.61
2022-09-26T08:01:13.737Z,988.63
2022-09-26T08:02:13.719Z,988.60
2022-09-26T08:03:13.679Z,988.60
2022-09-26T08:04:13.769Z,988.56
2022-09-26T08:05:13.601Z,988.56
2022-09-26T08:06:13.583Z,988.58
2022-09-26T08:07:13.574Z,988.62
2022-09-26T08:08:13.563Z,988.60
2022-09-26T08:09:13.553Z,988.62
2022-09-26T08:10:13.562Z,988.59
2022-09-26T08:11:13.532Z,988.59
2022-09-26T08:12:13.525Z,988.65
2022-09-26T08:13:13.504Z,988.66
2022-09-26T08:14:13.522Z,988.56
2022-09-26T08:15:13.483Z,988.64
2022-09-26T08:16:13.538Z,988.67
2022-09-26T08:17:14.322Z,988.57
2022-09-26T08:18:13.456Z,988.62
2022-09-26T08:19:13.531Z,988.63
2022-09-26T08:20:13.423Z,988.56
2022-09-26T08:21:13.417Z,988.59
2022-09-26T08:22:13.415Z,988.60
2022-09-26T08:23:13.394Z,988.63
2022-09-26T08:24:13.487Z,988.56
2022-09-26T08:25:13.365Z,988.54
2022-09-26T08:26:13.355Z,988.59
2022-09-26T08:27:15.086Z,988.51
2022-09-26T08:28:13.327Z,988.49
2022-09-26T08:29:13.344Z,988.56
2022-09-26T08:30:13.307Z,988.58
2022-09-26T08:31:13.355Z,988.52
2022-09-26T08:32:13.288Z,988.55
2022-09-26T08:33:13.289Z,988.53
2022-09-26T08:34:13.361Z,988.53
2022-09-26T08:35:13.248Z,988.58
2022-09-26T08:36:13.238Z,988.54
2022-09-26T08:37:13.237Z,988.53
2022-09-26T08:38:13.239Z,988.55
2022-09-26T08:39:13.286Z,988.55
2022-09-26T08:40:13.245Z,988.57
2022-09-26T08:41:13.190Z,988.47
2022-09-26T08:42:13.169Z,988.49
2022-09-26T08:43:13.169Z,988.51
2022-09-26T08:44:13.195Z,988.49
2022-09-26T08:45:13.142Z,988.50
2022-09-26T08:46:13.152Z,988.42
2022-09-26T08:47:13.121Z,988.42
2022-09-26T08:48:13.109Z,988.38
2022-09-26T08:49:13.121Z,988.46
2022-09-26T08:50:13.091Z,988.37
2022-09-26T08:51:13.082Z,988.38
2022-09-26T08:52:13.071Z,988.43
2022-09-26T08:53:13.053Z,988.34
2022-09-26T08:54:13.063Z,988.40
2022-09-26T08:55:13.054Z,988.37
2022-09-26T08:56:13.021Z,988.36
2022-09-26T08:57:13.014Z,988.39
2022-09-26T08:58:12.993Z,988.36
2022-09-26T08:59:12.993Z,988.33
2022-09-26T09:00:12.976Z,988.31
2022-09-26T09:01:13.096Z,988.31
2022-09-26T09:02:13.089Z,988.40
2022-09-26T09:03:13.044Z,988.34
2022-09-26T09:04:13.041Z,988.32
2022-09-26T09:05:12.924Z,988.30
2022-09-26T09:06:12.908Z,988.34
2022-09-26T09:07:12.915Z,988.35
2022-09-26T09:08:19.937Z,988.28
2022-09-26T09:09:12.877Z,988.29
2022-09-26T09:10:12.891Z,988.27
2022-09-26T09:11:12.855Z,988.29
2022-09-26T09:12:12.846Z,988.23
2022-09-26T09:13:12.847Z,988.21
2022-09-26T09:14:12.842Z,988.19
2022-09-26T09:15:25.300Z,988.17
2022-09-26T09:16:13.880Z,988.08
2022-09-26T09:17:12.791Z,988.04
2022-09-26T09:18:13.944Z,988.05
2022-09-26T09:19:12.766Z,988.01
2022-09-26T09:20:12.750Z,988.15
2022-09-26T09:21:12.739Z,988.04
2022-09-26T09:22:12.738Z,988.04
2022-09-26T09:23:12.721Z,988.04
2022-09-26T09:24:12.760Z,988.11
2022-09-26T09:25:12.698Z,988.03
2022-09-26T09:28:13.690Z,988.10
2022-09-26T09:29:12.726Z,988.08
2022-09-26T09:30:16.899Z,988.07
2022-09-26T09:31:12.655Z,988.03
2022-09-26T09:32:12.624Z,987.97
2022-09-26T09:33:12.600Z,988.03
2022-09-26T09:34:12.601Z,988.00
2022-09-26T09:35:12.578Z,988.06
2022-09-26T09:36:12.591Z,988.01
2022-09-26T09:37:12.568Z,988.12
2022-09-26T09:38:12.553Z,988.06
2022-09-26T09:39:12.539Z,988.01
2022-09-26T09:40:12.527Z,987.93
2022-09-26T09:41:12.516Z,987.98
2022-09-26T09:42:12.523Z,987.92
2022-09-26T09:43:12.488Z,987.92
2022-09-26T09:44:12.533Z,987.90
2022-09-26T09:45:12.471Z,987.89
2022-09-26T09:46:12.519Z,987.92
2022-09-26T09:47:12.475Z,987.87
2022-09-26T09:48:12.441Z,987.88
2022-09-26T09:49:12.422Z,987.80
2022-09-26T09:50:12.412Z,987.84
2022-09-26T09:51:12.402Z,987.78
2022-09-26T09:52:12.393Z,987.86
2022-09-26T09:53:12.451Z,987.74
2022-09-26T09:54:12.460Z,987.70
2022-09-26T09:55:12.457Z,987.73
2022-09-26T09:56:12.351Z,987.62
2022-09-26T09:57:12.332Z,987.72
2022-09-26T09:58:12.323Z,987.60
2022-09-26T09:59:12.325Z,987.56
2022-09-26T10:00:12.303Z,987.54
2022-09-26T10:01:12.294Z,987.51
2022-09-26T10:02:12.284Z,987.55
2022-09-26T10:03:12.337Z,987.46
2022-09-26T10:04:12.380Z,987.52
2022-09-26T10:05:12.244Z,987.48
2022-09-26T10:06:46.433Z,987.46
2022-09-26T10:07:13.223Z,987.47
2022-09-26T10:08:12.219Z,987.46
2022-09-26T10:09:38.561Z,987.40
2022-09-26T10:10:13.224Z,987.45
2022-09-26T10:11:12.176Z,987.42
2022-09-26T10:12:12.176Z,987.35
2022-09-26T10:13:12.156Z,987.38
2022-09-26T10:14:12.162Z,987.29
2022-09-26T10:15:12.134Z,987.34
2022-09-26T10:16:12.247Z,987.36
2022-09-26T10:17:12.118Z,987.35
2022-09-26T10:18:24.826Z,987.36
2022-09-26T10:19:13.095Z,987.38
2022-09-26T10:20:12.085Z,987.38
2022-09-26T10:21:12.085Z,987.29
2022-09-26T10:22:12.078Z,987.41
2022-09-26T10:23:12.045Z,987.31
2022-09-26T10:24:12.098Z,987.39
2022-09-26T10:25:12.015Z,987.31
2022-09-26T10:26:12.008Z,987.30
2022-09-26T10:27:12.020Z,987.29
2022-09-26T10:28:11.986Z,987.38
2022-09-26T10:29:11.975Z,987.31
2022-09-26T10:30:11.966Z,987.25
2022-09-26T10:31:12.036Z,987.33
2022-09-26T10:32:11.939Z,987.28
2022-09-26T10:33:11.947Z,987.41
2022-09-26T10:34:11.979Z,987.39
2022-09-26T10:35:15.029Z,987.41
2022-09-26T10:36:12.886Z,987.39
2022-09-26T10:37:11.876Z,987.34
2022-09-26T10:38:11.866Z,987.35
2022-09-26T10:39:11.878Z,987.34
2022-09-26T10:40:11.893Z,987.33
2022-09-26T10:41:11.829Z,987.46
2022-09-26T10:42:11.818Z,987.30
2022-09-26T10:43:11.812Z,987.29
2022-09-26T10:44:11.802Z,987.28
2022-09-26T10:45:11.803Z,987.32
2022-09-26T10:46:11.893Z,987.32
2022-09-26T10:47:11.759Z,987.32
2022-09-26T10:48:11.750Z,987.29
2022-09-26T10:49:11.738Z,987.29
2022-09-26T10:50:11.748Z,987.29
2022-09-26T10:51:11.712Z,987.24
2022-09-26T10:52:16.063Z,987.30
2022-09-26T10:53:12.692Z,987.27
2022-09-26T10:54:12.125Z,987.31
2022-09-26T10:55:11.660Z,987.20
2022-09-26T10:56:11.670Z,987.20
2022-09-26T10:57:11.639Z,987.22
2022-09-26T10:58:13.920Z,987.24
2022-09-26T10:59:11.623Z,987.24
2022-09-26T11:00:11.608Z,987.21
2022-09-26T11:01:11.687Z,987.21
2022-09-26T11:02:11.627Z,987.22
2022-09-26T11:03:11.603Z,987.18
2022-09-26T11:04:11.770Z,987.14
2022-09-26T11:05:11.541Z,987.14
2022-09-26T11:06:11.540Z,987.14
2022-09-26T11:07:11.540Z,987.12
2022-09-26T11:08:11.513Z,987.14
2022-09-26T11:09:11.503Z,987.16
2022-09-26T11:10:11.490Z,987.21
2022-09-26T11:11:11.473Z,987.16
2022-09-26T11:12:11.471Z,987.06
2022-09-26T11:13:11.475Z,987.10
2022-09-26T11:14:11.441Z,987.07
2022-09-26T11:15:11.437Z,987.10
2022-09-26T11:16:11.471Z,987.08
2022-09-26T11:17:11.403Z,987.06
2022-09-26T11:18:11.394Z,987.09
2022-09-26T11:19:11.435Z,987.07
2022-09-26T11:20:11.373Z,987.04
2022-09-26T11:21:31.051Z,987.01
2022-09-26T11:22:12.353Z,987.00
2022-09-26T11:23:11.336Z,987.03
2022-09-26T11:24:11.326Z,987.01
2022-09-26T11:25:11.338Z,986.96
2022-09-26T11:26:11.309Z,986.96
2022-09-26T11:27:11.292Z,986.99
2022-09-26T11:28:11.305Z,987.00
2022-09-26T11:29:11.262Z,987.04
2022-09-26T11:30:11.255Z,987.04
2022-09-26T11:31:11.307Z,987.02
2022-09-26T11:32:11.234Z,987.03
2022-09-26T11:33:11.215Z,986.97
2022-09-26T11:34:11.205Z,987.00
2022-09-26T11:35:11.194Z,987.02
2022-09-26T11:36:11.187Z,986.93
2022-09-26T11:37:11.185Z,986.92
2022-09-26T11:38:11.195Z,986.96
2022-09-26T11:39:11.147Z,986.85
2022-09-26T11:40:11.184Z,986.84
2022-09-26T11:41:11.126Z,986.87
2022-09-26T11:42:11.143Z,986.91
2022-09-26T11:43:11.103Z,986.78
2022-09-26T11:44:11.193Z,986.74
2022-09-26T11:45:11.078Z,986.80
2022-09-26T11:46:11.144Z,986.77
2022-09-26T11:47:11.056Z,986.78
2022-09-26T11:48:11.066Z,986.83
2022-09-26T11:49:11.030Z,986.77
2022-09-26T11:50:11.066Z,986.80
2022-09-26T11:51:11.007Z,986.79
2022-09-26T11:52:10.996Z,986.80
2022-09-26T11:53:10.985Z,986.68
2022-09-26T11:54:10.999Z,986.72
2022-09-26T11:55:10.958Z,986.80
2022-09-26T11:56:10.962Z,986.72
2022-09-26T11:57:10.937Z,986.72
2022-09-26T11:58:10.928Z,986.76
2022-09-26T11:59:10.936Z,986.72
2022-09-26T12:00:10.927Z,986.76
2022-09-26T12:01:10.892Z,986.71
2022-09-26T12:02:10.888Z,986.71
2022-09-26T12:03:10.914Z,986.66
2022-09-26T12:04:11.030Z,986.68
2022-09-26T12:05:10.866Z,986.78
2022-09-26T12:06:10.829Z,986.66
2022-09-26T12:07:10.818Z,986.66
2022-09-26T12:08:10.810Z,986.69
2022-09-26T12:09:10.799Z,986.64
2022-09-26T12:10:10.807Z,986.65
2022-09-26T12:11:10.790Z,986.60
2022-09-26T12:12:10.771Z,986.51
2022-09-26T12:13:10.751Z,986.61
2022-09-26T12:14:10.741Z,986.53
2022-09-26T12:15:10.731Z,986.56
2022-09-26T12:16:10.808Z,986.56
2022-09-26T12:17:10.731Z,986.54
2022-09-26T12:18:10.700Z,986.51
2022-09-26T12:19:16.137Z,986.50
2022-09-26T12:20:11.674Z,986.51
2022-09-26T12:21:10.666Z,986.51
2022-09-26T12:22:10.652Z,986.49
2022-09-26T12:23:10.702Z,986.46
2022-09-26T12:24:10.632Z,986.45
2022-09-26T12:25:10.611Z,986.43
2022-09-26T12:26:10.600Z,986.41
2022-09-26T12:27:10.582Z,986.42
2022-09-26T12:28:10.585Z,986.37
2022-09-26T12:29:10.582Z,986.35
2022-09-26T12:30:10.551Z,986.22
2022-09-26T12:31:10.563Z,986.20